Terminal Aerodrome Forecast
Issued by NWS Albany, NY

Home | Current Version | Previous Version | Text Only | Print | Product List | Glossary On
Versions: 1 2 3 4 5 6 7 8 9 10 11 12 13 14 15 16 17 18 19 20
000
FTUS41 KALY 201300 AAA
TAFALB
TAF AMD
KALB 201315Z 2013/2112 VRB03KT P6SM SCT015 BKN060
      TEMPO 2013/2015 BKN015
     FM201500 15005KT P6SM SCT050 BKN250
     FM202000 16007KT P6SM SCT050 BKN120
     FM210000 17006KT P6SM VCSH BKN040 OVC100
     FM210600 16005KT 4SM -SHRA BR SCT020 OVC035=

USA.gov is the U.S. government's official web portal to all federal, state and local government web resources and services.